createdAt,value
2023-10-20T00:01:00.681Z,2.28
2023-10-20T00:03:32.967Z,1.90
2023-10-20T00:06:05.843Z,2.97
2023-10-20T00:08:37.275Z,2.63
2023-10-20T00:11:10.104Z,2.00
2023-10-20T00:13:41.809Z,2.05
2023-10-20T00:16:12.888Z,1.73
2023-10-20T00:18:44.589Z,2.30
2023-10-20T00:21:16.674Z,2.25
2023-10-20T00:23:48.294Z,2.50
2023-10-20T00:26:20.107Z,2.53
2023-10-20T00:28:54.336Z,2.38
2023-10-20T00:31:26.531Z,2.30
2023-10-20T00:33:58.552Z,3.35
2023-10-20T00:36:30.709Z,1.95
2023-10-20T00:39:02.222Z,2.80
2023-10-20T00:44:04.618Z,2.25
2023-10-20T00:46:37.049Z,2.33
2023-10-20T00:49:09.064Z,2.53
2023-10-20T00:51:41.603Z,2.78
2023-10-20T00:54:16.301Z,2.15
2023-10-20T00:56:48.472Z,2.25
2023-10-20T00:59:19.942Z,2.88
2023-10-20T01:01:51.037Z,1.50
2023-10-20T01:04:22.453Z,2.47
2023-10-20T01:06:54.859Z,2.80
2023-10-20T01:09:28.403Z,3.58
2023-10-20T01:11:59.752Z,2.85
2023-10-20T01:14:31.654Z,2.83
2023-10-20T01:17:03.415Z,2.55
2023-10-20T01:19:35.377Z,2.42
2023-10-20T01:22:07.340Z,1.50
2023-10-20T01:24:39.281Z,1.75
2023-10-20T01:27:09.968Z,2.08
2023-10-20T01:29:41.009Z,2.35
2023-10-20T01:32:11.555Z,2.72
2023-10-20T01:34:42.707Z,2.30
2023-10-20T01:37:17.470Z,2.63
2023-10-20T01:39:48.611Z,2.42
2023-10-20T01:42:19.228Z,2.40
2023-10-20T01:44:50.151Z,3.60
2023-10-20T01:47:21.258Z,2.30
2023-10-20T01:49:52.544Z,2.30
2023-10-20T01:52:22.776Z,2.38
2023-10-20T01:54:53.936Z,1.77
2023-10-20T01:57:24.441Z,2.83
2023-10-20T01:59:54.788Z,1.85
2023-10-20T02:02:25.124Z,2.45
2023-10-20T02:04:55.511Z,2.08
2023-10-20T02:07:25.587Z,1.92
2023-10-20T02:09:57.325Z,2.45
2023-10-20T02:12:27.522Z,2.60
2023-10-20T02:14:57.524Z,1.90
2023-10-20T02:17:27.815Z,2.35
2023-10-20T02:19:58.357Z,1.95
2023-10-20T02:22:28.450Z,2.22
2023-10-20T02:24:58.931Z,2.10
2023-10-20T02:27:30.835Z,1.65
2023-10-20T02:30:01.042Z,1.58
2023-10-20T02:32:31.409Z,2.15
2023-10-20T02:35:02.787Z,2.33
2023-10-20T02:37:33.329Z,1.08
2023-10-20T02:40:07.252Z,1.75
2023-10-20T02:42:37.452Z,1.20
2023-10-20T02:45:13.212Z,1.52
2023-10-20T02:47:43.472Z,1.30
2023-10-20T02:50:14.593Z,1.27
2023-10-20T02:52:45.439Z,1.35
2023-10-20T02:55:15.749Z,1.20
2023-10-20T02:57:45.960Z,1.30
2023-10-20T03:00:17.439Z,1.38
2023-10-20T03:02:50.908Z,1.27
2023-10-20T03:05:22.565Z,1.27
2023-10-20T03:07:52.729Z,1.88
2023-10-20T03:10:22.830Z,1.50
2023-10-20T03:12:53.155Z,1.95
2023-10-20T03:15:23.325Z,1.50
2023-10-20T03:17:54.339Z,2.45
2023-10-20T03:20:30.632Z,1.85
2023-10-20T03:23:00.886Z,2.63
2023-10-20T03:25:35.835Z,1.77
2023-10-20T03:28:07.622Z,1.27
2023-10-20T03:30:41.913Z,1.85
2023-10-20T03:33:13.452Z,1.38
2023-10-20T03:35:43.941Z,1.75
2023-10-20T03:38:14.176Z,2.13
2023-10-20T03:40:44.660Z,1.58
2023-10-20T03:43:14.830Z,1.75
2023-10-20T03:45:51.774Z,2.08
2023-10-20T03:48:22.357Z,2.05
2023-10-20T03:50:54.779Z,1.50
2023-10-20T03:53:25.741Z,1.70
2023-10-20T03:56:03.779Z,1.60
2023-10-20T03:58:35.046Z,2.17
2023-10-20T04:01:08.980Z,1.92
2023-10-20T04:03:39.236Z,1.83
2023-10-20T04:06:13.348Z,1.85
2023-10-20T04:08:44.788Z,1.33
2023-10-20T04:13:45.332Z,2.72
2023-10-20T04:16:15.886Z,2.47
2023-10-20T04:18:46.870Z,2.70
2023-10-20T04:21:17.156Z,2.33
2023-10-20T04:23:47.427Z,3.10
2023-10-20T04:26:23.574Z,2.00
2023-10-20T04:29:10.420Z,2.28
2023-10-20T04:31:59.360Z,3.20
2023-10-20T04:34:48.215Z,2.67
2023-10-20T04:37:36.633Z,1.48
2023-10-20T04:40:25.566Z,2.33
2023-10-20T04:43:14.108Z,2.20
2023-10-20T04:46:02.524Z,1.55
2023-10-20T04:48:50.963Z,1.50
2023-10-20T04:51:39.243Z,1.55
2023-10-20T04:54:25.071Z,1.80
2023-10-20T04:57:13.258Z,2.13
2023-10-20T04:59:46.210Z,1.60
2023-10-20T05:02:34.773Z,2.13
2023-10-20T05:05:13.482Z,1.58
2023-10-20T05:07:52.481Z,1.60
2023-10-20T05:10:23.441Z,2.15
2023-10-20T05:12:54.060Z,1.73
2023-10-20T05:15:24.359Z,1.95
2023-10-20T05:17:55.016Z,1.70
2023-10-20T05:20:26.439Z,1.73
2023-10-20T05:22:58.707Z,2.22
2023-10-20T05:25:28.997Z,2.00
2023-10-20T05:27:59.334Z,1.98
2023-10-20T05:30:29.999Z,1.67
2023-10-20T05:33:00.429Z,2.03
2023-10-20T05:35:31.662Z,2.10
2023-10-20T05:38:01.891Z,2.67
2023-10-20T05:40:32.100Z,2.28
2023-10-20T05:43:04.158Z,2.78
2023-10-20T05:45:43.901Z,2.05
2023-10-20T05:48:15.122Z,1.98
2023-10-20T05:50:45.416Z,1.83
2023-10-20T05:53:16.724Z,1.40
2023-10-20T05:55:47.369Z,1.40
2023-10-20T05:58:17.544Z,2.20
2023-10-20T06:01:01.610Z,1.60
2023-10-20T06:03:33.253Z,1.85
2023-10-20T06:06:05.841Z,2.35
2023-10-20T06:08:36.130Z,1.40
2023-10-20T06:11:07.635Z,1.42
2023-10-20T06:16:13.188Z,2.22
2023-10-20T06:18:44.911Z,1.92
2023-10-20T06:21:17.788Z,2.30
2023-10-20T06:23:48.943Z,2.22
2023-10-20T06:26:19.497Z,1.63
2023-10-20T06:28:49.645Z,2.20
2023-10-20T06:31:31.730Z,1.65
2023-10-20T06:34:20.021Z,1.95
2023-10-20T06:36:50.640Z,1.70
2023-10-20T06:39:21.037Z,1.98
2023-10-20T06:41:51.463Z,1.90
2023-10-20T06:44:24.299Z,2.40
2023-10-20T06:46:55.148Z,1.90
2023-10-20T06:49:25.618Z,2.47
2023-10-20T06:51:55.865Z,2.20
2023-10-20T06:54:26.056Z,1.85
2023-10-20T06:56:56.723Z,2.17
2023-10-20T06:59:26.955Z,2.05
2023-10-20T07:02:02.668Z,2.67
2023-10-20T07:04:34.386Z,1.90
2023-10-20T07:07:07.716Z,2.35
2023-10-20T07:09:38.183Z,2.42
2023-10-20T07:12:12.485Z,2.80
2023-10-20T07:14:46.032Z,1.92
2023-10-20T07:17:16.304Z,2.03
2023-10-20T07:19:46.456Z,2.00
2023-10-20T07:22:16.781Z,1.45
2023-10-20T07:24:47.134Z,2.70
2023-10-20T07:27:19.033Z,2.03
2023-10-20T07:29:49.573Z,1.85
2023-10-20T07:32:20.902Z,2.30
2023-10-20T07:37:41.927Z,1.30
2023-10-20T07:40:13.063Z,1.80
2023-10-20T07:42:43.796Z,3.20
2023-10-20T07:45:15.199Z,1.63
2023-10-20T07:47:45.391Z,2.33
2023-10-20T07:50:15.658Z,2.30
2023-10-20T07:52:45.910Z,1.85
2023-10-20T07:55:16.976Z,2.17
2023-10-20T07:57:47.524Z,2.10
2023-10-20T08:00:18.235Z,2.17
2023-10-20T08:02:52.381Z,2.10
2023-10-20T08:05:29.488Z,2.17
2023-10-20T08:08:00.918Z,2.13
2023-10-20T08:10:31.245Z,2.65
2023-10-20T08:13:01.928Z,1.73
2023-10-20T08:15:32.420Z,2.60
2023-10-20T08:18:02.713Z,1.40
2023-10-20T08:20:33.037Z,1.52
2023-10-20T08:23:03.616Z,2.08
2023-10-20T08:25:33.578Z,2.35
2023-10-20T08:28:03.630Z,2.45
2023-10-20T08:30:33.881Z,2.08
2023-10-20T08:33:05.828Z,2.03
2023-10-20T08:35:36.516Z,2.13
2023-10-20T08:38:07.074Z,2.03
2023-10-20T08:40:56.179Z,1.55
2023-10-20T08:45:58.577Z,1.77
2023-10-20T08:48:29.599Z,1.67
2023-10-20T08:51:01.655Z,1.63
2023-10-20T08:53:38.863Z,3.25
2023-10-20T08:56:11.066Z,1.95
2023-10-20T08:58:42.500Z,1.60
2023-10-20T09:01:12.688Z,1.73
2023-10-20T09:03:45.699Z,1.90
2023-10-20T09:06:17.200Z,1.73
2023-10-20T09:08:53.454Z,2.15
2023-10-20T09:11:33.190Z,2.47
2023-10-20T09:14:05.038Z,2.10
2023-10-20T09:16:37.006Z,1.70
2023-10-20T09:19:08.124Z,1.90
2023-10-20T09:21:41.982Z,2.60
2023-10-20T09:24:14.315Z,1.85
2023-10-20T09:26:45.994Z,2.05
2023-10-20T09:29:18.092Z,1.52
2023-10-20T09:31:48.487Z,1.67
2023-10-20T09:34:18.775Z,1.88
2023-10-20T09:36:51.813Z,1.65
2023-10-20T09:39:33.719Z,1.65
2023-10-20T09:42:05.261Z,2.22
2023-10-20T09:44:47.852Z,1.88
2023-10-20T09:47:25.962Z,1.40
2023-10-20T09:49:57.292Z,1.90
2023-10-20T09:52:29.304Z,1.92
2023-10-20T09:55:01.745Z,1.88
2023-10-20T09:57:32.274Z,2.38
2023-10-20T10:00:07.616Z,2.88
2023-10-20T10:02:38.030Z,2.97
2023-10-20T10:05:12.464Z,2.38
2023-10-20T10:07:42.634Z,2.33
2023-10-20T10:10:23.056Z,2.42
2023-10-20T10:13:02.332Z,2.28
2023-10-20T10:15:42.713Z,2.65
2023-10-20T10:18:15.044Z,1.88
2023-10-20T10:20:51.078Z,2.78
2023-10-20T10:23:31.963Z,3.17
2023-10-20T10:26:02.241Z,2.88
2023-10-20T10:28:33.130Z,3.67
2023-10-20T10:31:03.969Z,3.30
2023-10-20T10:33:34.828Z,2.50
2023-10-20T10:36:12.514Z,2.13
2023-10-20T10:38:45.628Z,2.42
2023-10-20T10:41:16.076Z,2.35
2023-10-20T10:43:46.261Z,2.67
2023-10-20T10:46:16.587Z,2.42
2023-10-20T10:48:47.724Z,2.60
2023-10-20T10:51:17.968Z,3.10
2023-10-20T10:53:48.713Z,3.17
2023-10-20T10:56:20.142Z,3.13
2023-10-20T10:58:51.068Z,2.78
2023-10-20T11:01:22.711Z,2.55
2023-10-20T11:03:53.656Z,3.13
2023-10-20T11:06:23.920Z,2.85
2023-10-20T11:08:54.676Z,2.58
2023-10-20T11:11:29.842Z,3.40
2023-10-20T11:14:00.721Z,2.78
2023-10-20T11:16:30.888Z,2.70
2023-10-20T11:19:03.967Z,2.53
2023-10-20T11:21:56.535Z,2.92
2023-10-20T11:24:37.759Z,3.25
2023-10-20T11:27:11.080Z,3.67
2023-10-20T11:29:58.590Z,2.25
2023-10-20T11:32:29.596Z,3.08
2023-10-20T11:34:59.953Z,2.53
2023-10-20T11:37:30.144Z,2.67
2023-10-20T11:40:00.378Z,2.97
2023-10-20T11:42:31.281Z,2.92
2023-10-20T11:45:03.341Z,2.80
2023-10-20T11:47:33.711Z,3.40
2023-10-20T11:50:04.642Z,2.60
2023-10-20T11:52:34.903Z,4.18
2023-10-20T11:55:06.084Z,3.67
2023-10-20T11:57:36.382Z,3.15
2023-10-20T12:00:11.406Z,3.92
2023-10-20T12:02:42.462Z,4.18
2023-10-20T12:05:12.929Z,3.10
2023-10-20T12:07:43.137Z,3.58
2023-10-20T12:10:14.877Z,3.47
2023-10-20T12:12:45.147Z,3.90
2023-10-20T12:15:15.142Z,2.92
2023-10-20T12:17:45.380Z,3.42
2023-10-20T12:20:15.654Z,2.95
2023-10-20T12:22:46.004Z,3.97
2023-10-20T12:25:17.155Z,3.60
2023-10-20T12:27:47.428Z,2.90
2023-10-20T12:30:18.109Z,3.20
2023-10-20T12:32:50.355Z,3.35
2023-10-20T12:35:22.141Z,3.28
2023-10-20T12:37:53.560Z,3.70
2023-10-20T12:42:53.931Z,3.00
2023-10-20T12:45:24.120Z,3.28
2023-10-20T12:47:57.863Z,2.78
2023-10-20T12:50:34.778Z,2.85
2023-10-20T12:53:05.870Z,2.67
2023-10-20T12:55:37.132Z,2.38
2023-10-20T12:58:07.529Z,2.20
2023-10-20T13:00:37.779Z,2.53
2023-10-20T13:03:09.716Z,2.22
2023-10-20T13:05:40.349Z,2.72
2023-10-20T13:08:10.594Z,2.83
2023-10-20T13:10:41.691Z,2.63
2023-10-20T13:13:12.865Z,2.83
2023-10-20T13:15:43.822Z,3.00
2023-10-20T13:18:18.004Z,2.70
2023-10-20T13:20:48.257Z,2.47
2023-10-20T13:23:18.795Z,2.83
2023-10-20T13:25:49.019Z,2.38
2023-10-20T13:28:19.240Z,2.47
2023-10-20T13:31:07.507Z,2.92
2023-10-20T13:33:38.975Z,2.50
2023-10-20T13:36:13.426Z,4.10
2023-10-20T13:38:43.752Z,4.10
2023-10-20T13:41:17.367Z,3.17
2023-10-20T13:43:47.592Z,2.67
2023-10-20T13:46:18.734Z,2.40
2023-10-20T13:48:49.433Z,2.33
2023-10-20T13:51:19.657Z,2.50
2023-10-20T13:53:50.023Z,2.33
2023-10-20T13:56:20.326Z,2.15
2023-10-20T13:58:50.795Z,2.55
2023-10-20T14:01:20.997Z,2.78
2023-10-20T14:03:52.496Z,2.80
2023-10-20T14:06:22.753Z,3.50
2023-10-20T14:08:52.861Z,2.83
2023-10-20T14:11:23.342Z,2.72
2023-10-20T14:13:53.684Z,2.92
2023-10-20T14:16:23.957Z,3.20
2023-10-20T14:18:54.155Z,2.75
2023-10-20T14:21:25.588Z,3.17
2023-10-20T14:23:55.957Z,3.20
2023-10-20T14:26:26.078Z,2.83
2023-10-20T14:28:56.368Z,3.38
2023-10-20T14:31:26.644Z,2.90
2023-10-20T14:33:57.131Z,3.55
2023-10-20T14:36:27.329Z,2.80
2023-10-20T14:38:57.560Z,2.50
2023-10-20T14:41:27.793Z,3.20
2023-10-20T14:43:58.042Z,2.45
2023-10-20T14:46:28.717Z,3.35
2023-10-20T14:48:59.054Z,2.67
2023-10-20T14:51:29.269Z,2.95
2023-10-20T14:54:00.465Z,3.35
2023-10-20T14:59:01.246Z,2.47
2023-10-20T15:01:32.240Z,3.40
2023-10-20T15:04:13.998Z,2.83
2023-10-20T15:06:52.244Z,2.53
2023-10-20T15:09:23.249Z,2.67
2023-10-20T15:11:54.445Z,3.22
2023-10-20T15:16:56.411Z,2.70
2023-10-20T15:19:27.995Z,2.92
2023-10-20T15:21:58.223Z,2.70
2023-10-20T15:24:28.447Z,2.95
2023-10-20T15:26:59.196Z,2.60
2023-10-20T15:29:29.504Z,2.90
2023-10-20T15:31:59.771Z,2.75
2023-10-20T15:34:30.746Z,2.60
2023-10-20T15:37:01.861Z,2.45
2023-10-20T15:39:47.372Z,2.72
2023-10-20T15:42:23.593Z,2.83
2023-10-20T15:44:53.912Z,2.47
2023-10-20T15:47:24.313Z,2.70
2023-10-20T15:49:54.792Z,1.75
2023-10-20T15:52:25.038Z,2.63
2023-10-20T15:54:56.211Z,2.40
2023-10-20T16:02:29.258Z,2.40
2023-10-20T16:05:00.363Z,2.58
2023-10-20T16:07:33.182Z,2.47
2023-10-20T16:10:03.405Z,3.00
2023-10-20T16:12:33.633Z,1.98
2023-10-20T16:15:03.970Z,2.50
2023-10-20T16:17:34.640Z,1.90
2023-10-20T16:20:05.587Z,1.92
2023-10-20T16:22:35.776Z,1.92
2023-10-20T16:25:06.511Z,2.17
2023-10-20T16:27:36.942Z,2.20
2023-10-20T16:30:07.829Z,2.67
2023-10-20T16:32:40.331Z,2.00
2023-10-20T16:35:11.696Z,2.47
2023-10-20T16:37:41.876Z,2.47
2023-10-20T16:40:13.724Z,2.42
2023-10-20T16:42:43.912Z,2.33
2023-10-20T16:45:14.167Z,2.15
2023-10-20T16:47:44.464Z,2.83
2023-10-20T16:50:14.706Z,2.25
2023-10-20T16:52:44.854Z,2.10
2023-10-20T16:55:14.913Z,2.55
2023-10-20T16:57:45.097Z,2.20
2023-10-20T17:00:15.701Z,2.47
2023-10-20T17:02:47.559Z,2.25
2023-10-20T17:05:18.297Z,2.15
2023-10-20T17:07:49.149Z,2.25
2023-10-20T17:10:20.690Z,2.65
2023-10-20T17:12:52.529Z,2.38
2023-10-20T17:15:22.802Z,2.65
2023-10-20T17:17:53.010Z,2.83
2023-10-20T17:20:23.316Z,2.53
2023-10-20T17:22:53.453Z,2.55
2023-10-20T17:25:23.619Z,2.85
2023-10-20T17:27:53.797Z,2.47
2023-10-20T17:30:24.073Z,2.53
2023-10-20T17:32:54.379Z,2.10
2023-10-20T17:35:24.446Z,2.28
2023-10-20T17:37:56.158Z,1.70
2023-10-20T17:40:26.794Z,2.20
2023-10-20T17:42:56.762Z,1.83
2023-10-20T17:45:28.732Z,2.03
2023-10-20T17:47:58.998Z,1.60
2023-10-20T17:50:29.277Z,2.13
2023-10-20T17:52:59.433Z,1.75
2023-10-20T17:55:29.668Z,2.00
2023-10-20T17:58:02.692Z,2.38
2023-10-20T18:00:33.024Z,2.13
2023-10-20T18:03:03.605Z,1.50
2023-10-20T18:05:34.746Z,1.42
2023-10-20T18:08:06.626Z,1.50
2023-10-20T18:10:36.952Z,1.52
2023-10-20T18:13:07.096Z,1.90
2023-10-20T18:15:41.588Z,1.70
2023-10-20T18:18:12.370Z,1.92
2023-10-20T18:20:42.730Z,1.50
2023-10-20T18:23:12.994Z,1.90
2023-10-20T18:25:43.153Z,1.75
2023-10-20T18:28:13.327Z,1.98
2023-10-20T18:30:43.465Z,1.85
2023-10-20T18:33:13.829Z,2.08
2023-10-20T18:35:44.139Z,2.25
2023-10-20T18:38:14.718Z,1.63
2023-10-20T18:40:46.078Z,2.20
2023-10-20T18:43:16.287Z,3.22
2023-10-20T18:45:59.256Z,2.75
2023-10-20T18:48:31.113Z,3.42
2023-10-20T18:51:12.048Z,2.03
2023-10-20T18:53:43.268Z,3.03
2023-10-20T18:56:14.200Z,2.38
2023-10-20T18:58:47.180Z,2.47
2023-10-20T19:01:18.495Z,2.45
2023-10-20T19:03:49.487Z,1.85
2023-10-20T19:06:20.249Z,2.42
2023-10-20T19:08:50.440Z,2.47
2023-10-20T19:11:23.172Z,2.30
2023-10-20T19:13:53.901Z,1.90
2023-10-20T19:16:24.166Z,2.45
2023-10-20T19:18:54.448Z,2.20
2023-10-20T19:21:24.782Z,2.25
2023-10-20T19:23:54.994Z,3.17
2023-10-20T19:26:25.190Z,3.10
2023-10-20T19:28:55.672Z,2.53
2023-10-20T19:31:25.944Z,2.33
2023-10-20T19:33:56.193Z,2.22
2023-10-20T19:36:26.396Z,2.92
2023-10-20T19:38:56.801Z,2.45
2023-10-20T19:41:27.138Z,2.17
2023-10-20T19:43:57.396Z,1.90
2023-10-20T19:46:28.208Z,2.50
2023-10-20T19:48:58.429Z,2.35
2023-10-20T19:51:28.526Z,2.17
2023-10-20T19:53:58.765Z,1.83
2023-10-20T19:56:29.012Z,2.45
2023-10-20T19:58:59.306Z,2.00
2023-10-20T20:01:29.905Z,2.22
2023-10-20T20:04:00.269Z,2.67
2023-10-20T20:06:31.168Z,2.80
2023-10-20T20:09:01.338Z,2.97
2023-10-20T20:11:31.661Z,1.98
2023-10-20T20:14:01.904Z,2.35
2023-10-20T20:16:32.153Z,1.50
2023-10-20T20:19:02.203Z,2.00
2023-10-20T20:21:32.431Z,2.85
2023-10-20T20:24:02.615Z,1.52
2023-10-20T20:26:32.773Z,1.42
2023-10-20T20:29:03.114Z,1.75
2023-10-20T20:31:33.711Z,2.05
2023-10-20T20:34:03.896Z,2.58
2023-10-20T20:36:34.186Z,2.63
2023-10-20T20:39:06.635Z,2.20
2023-10-20T20:41:36.897Z,3.17
2023-10-20T20:44:07.069Z,3.17
2023-10-20T20:46:37.592Z,2.15
2023-10-20T20:49:07.859Z,2.33
2023-10-20T20:51:38.505Z,2.40
2023-10-20T20:54:08.774Z,3.53
2023-10-20T20:56:39.198Z,2.88
2023-10-20T20:59:09.496Z,3.35
2023-10-20T21:01:41.104Z,3.88
2023-10-20T21:04:11.361Z,2.80
2023-10-20T21:06:42.019Z,3.22
2023-10-20T21:09:12.645Z,2.70
2023-10-20T21:11:42.978Z,3.58
2023-10-20T21:14:13.274Z,2.85
2023-10-20T21:16:43.436Z,2.92
2023-10-20T21:19:13.619Z,3.50
2023-10-20T21:21:43.902Z,3.22
2023-10-20T21:24:14.161Z,2.65
2023-10-20T21:26:44.377Z,3.42
2023-10-20T21:29:14.554Z,3.30
2023-10-20T21:31:44.744Z,3.85
2023-10-20T21:34:14.647Z,2.53
2023-10-20T21:36:44.988Z,3.63
2023-10-20T21:39:15.345Z,2.13
2023-10-20T21:41:45.638Z,2.85
2023-10-20T21:44:15.769Z,2.33
2023-10-20T21:46:45.754Z,3.42
2023-10-20T21:49:15.920Z,2.83
2023-10-20T21:51:51.103Z,2.60
2023-10-20T21:54:21.252Z,2.60
2023-10-20T21:56:51.525Z,2.80
2023-10-20T21:59:21.711Z,2.28
2023-10-20T22:02:08.982Z,2.90
2023-10-20T22:04:40.167Z,3.00
2023-10-20T22:07:10.899Z,3.30
2023-10-20T22:09:53.145Z,2.38
2023-10-20T22:12:24.656Z,2.20
2023-10-20T22:14:54.952Z,2.67
2023-10-20T22:17:25.243Z,3.40
2023-10-20T22:19:55.478Z,3.33
2023-10-20T22:22:26.068Z,3.10
2023-10-20T22:24:56.358Z,3.33
2023-10-20T22:27:29.435Z,2.72
2023-10-20T22:30:00.883Z,3.28
2023-10-20T22:32:31.281Z,3.08
2023-10-20T22:35:02.858Z,3.83
2023-10-20T22:37:33.696Z,3.25
2023-10-20T22:40:06.856Z,2.95
2023-10-20T22:42:38.608Z,2.97
2023-10-20T22:45:09.268Z,3.60
2023-10-20T22:47:39.586Z,2.97
2023-10-20T22:50:10.289Z,2.95
2023-10-20T22:52:40.538Z,3.38
2023-10-20T22:55:11.638Z,3.42
2023-10-20T22:57:41.912Z,3.35
2023-10-20T23:00:14.480Z,3.45
2023-10-20T23:02:45.942Z,2.75
2023-10-20T23:05:16.229Z,3.17
2023-10-20T23:07:46.860Z,3.38
2023-10-20T23:10:17.018Z,4.38
2023-10-20T23:12:47.320Z,3.28
2023-10-20T23:15:17.641Z,3.17
2023-10-20T23:17:47.941Z,3.45
2023-10-20T23:20:18.210Z,3.60
2023-10-20T23:22:48.675Z,3.58
2023-10-20T23:25:18.928Z,2.83
2023-10-20T23:27:49.832Z,2.88
2023-10-20T23:30:20.136Z,3.40
2023-10-20T23:32:50.558Z,3.20
2023-10-20T23:35:21.241Z,3.20
2023-10-20T23:37:51.484Z,3.53
2023-10-20T23:40:21.733Z,3.42
2023-10-20T23:42:52.016Z,3.85
2023-10-20T23:45:22.311Z,3.95
2023-10-20T23:47:52.550Z,3.05
2023-10-20T23:50:23.273Z,3.58
2023-10-20T23:52:53.474Z,2.70
2023-10-20T23:55:23.406Z,3.13
2023-10-20T23:57:53.617Z,2.22
